KCAO

Clayton Municipal Arpk Airport

Clayton, New Mexico, USA
METAR KCAO 170555Z AUTO 32015KT 10SM CLR 02/M09 A2979 RMK AO2 SLP071 T00171094 10050 21028 51018 $
Observed Flight Rules
Dec-17 @ 05:55 UTC (27 minutes ago) Visual Flight Rules
Wind Visibility Clouds
320° at 15 knots 10 miles
  • Clear skies
Temperatures Readings
Current 2°C / 36°F
Dewpoint -9°C / 16°F
Humidity 44%
Altimeter 29.79" Hg
Pressure 1007.1 hPa
Elevation 1514
METAR KCAO 170555Z AUTO 32015KT 10SM CLR 02/M09 A2979 RMK AO2 SLP071 T00171094 10050 21028 51018 $
Observed Flight Rules
Dec-17 @ 05:55 UTC
(27 minutes ago)
VFR
Wind Visibility
320° at 15 knots 10 miles
Clouds
  • Clear skies
Temperature Dewpoint
2°C / 36°F -9°C / 16°F
Humidity Altimeter Pressure
44% 29.79" Hg 1007.1 hPa